EFLP

Lappeenranta Airport

Lappeenranta, Finland
METAR EFLP 191950Z AUTO 24013KT CAVOK 11/08 Q0999
Observed Flight Rules
Jun-19 @ 19:50 UTC (21 minutes ago) Visual Flight Rules
Wind Visibility Clouds
240° at 13 knots 10,000+ meters
  • Clear skies
Temperatures Readings
Current 11°C / 52°F
Dewpoint 8°C / 46°F
Humidity 82%
Altimeter 29.5" Hg
Pressure 999 hPa
Elevation 106
METAR EFLP 191950Z AUTO 24013KT CAVOK 11/08 Q0999
Observed Flight Rules
Jun-19 @ 19:50 UTC
(21 minutes ago)
VFR
Wind Visibility
240° at 13 knots 10,000+ meters
Clouds
  • Clear skies
Temperature Dewpoint
11°C / 52°F 8°C / 46°F
Humidity Altimeter Pressure
82% 29.5" Hg 999 hPa